createdAt,value
2024-03-02T00:04:06.297Z,1003.64
2024-03-02T00:34:06.361Z,1003.52
2024-03-02T01:04:06.324Z,1003.56
2024-03-02T01:34:06.385Z,1003.61
2024-03-02T02:04:06.303Z,1003.63
2024-03-02T02:34:06.384Z,1003.67
2024-03-02T03:04:06.309Z,1003.59
2024-03-02T03:34:06.355Z,1003.56
2024-03-02T04:04:06.337Z,1003.61
2024-03-02T04:34:06.531Z,1003.66
2024-03-02T05:04:06.338Z,1003.8
2024-03-02T05:34:06.482Z,1003.88
2024-03-02T06:04:06.344Z,1004.01
2024-03-02T06:34:06.486Z,1004.17
2024-03-02T07:04:06.373Z,1004.13
2024-03-02T07:34:06.437Z,1004.34
2024-03-02T08:04:06.380Z,1004.32
2024-03-02T08:34:06.440Z,1004.39
2024-03-02T09:04:06.511Z,1004.45
2024-03-02T09:34:06.490Z,1004.38
2024-03-02T10:04:06.425Z,1004.39
2024-03-02T10:34:06.467Z,1004.26
2024-03-02T11:04:06.401Z,1004.07
2024-03-02T11:34:06.465Z,1003.73
2024-03-02T12:04:06.477Z,1003.53
2024-03-02T12:34:06.460Z,1003.24
2024-03-02T13:04:06.469Z,1002.98
2024-03-02T13:34:06.455Z,1002.77
2024-03-02T14:04:06.479Z,1002.64
2024-03-02T14:34:06.486Z,1002.53
2024-03-02T15:04:06.493Z,1002.61
2024-03-02T15:34:06.512Z,1002.34
2024-03-02T16:04:06.509Z,1002.62
2024-03-02T16:34:06.539Z,1002.52
2024-03-02T17:04:06.525Z,1002.31
2024-03-02T17:34:06.534Z,1002.28
2024-03-02T18:04:09.965Z,1002.01
2024-03-02T18:34:06.568Z,1001.81
2024-03-02T19:04:06.593Z,1001.75
2024-03-02T19:34:06.488Z,1001.6
2024-03-02T20:04:06.526Z,1001.29
2024-03-02T20:34:06.537Z,1001.3
2024-03-02T21:04:06.517Z,1001.05
2024-03-02T21:34:06.537Z,1000.96
2024-03-02T22:04:06.537Z,1000.65
2024-03-02T22:34:06.580Z,1000.12
2024-03-02T23:04:06.601Z,999.82
2024-03-02T23:34:07.959Z,999.63
